createdAt,value
2023-02-05T00:01:03.678Z,102032.97
2023-02-05T00:03:30.982Z,102029.56
2023-02-05T00:05:57.973Z,102037.44
2023-02-05T00:08:27.730Z,102041.50
2023-02-05T00:10:55.153Z,102030.31
2023-02-05T00:13:23.334Z,102030.13
2023-02-05T00:15:51.234Z,102044.47
2023-02-05T00:18:18.729Z,102038.50
2023-02-05T00:20:46.065Z,102035.78
2023-02-05T00:23:12.918Z,102031.53
2023-02-05T00:25:39.841Z,102035.62
2023-02-05T00:28:06.773Z,102026.63
2023-02-05T00:30:33.855Z,102027.22
2023-02-05T00:33:00.964Z,102027.31
2023-02-05T00:35:27.855Z,102036.59
2023-02-05T00:37:56.548Z,102050.63
2023-02-05T00:40:23.550Z,102061.44
2023-02-05T00:42:50.460Z,102057.81
2023-02-05T00:45:17.453Z,102061.50
2023-02-05T00:47:44.402Z,102060.41
2023-02-05T00:50:11.475Z,102061.97
2023-02-05T00:52:38.425Z,102053.31
2023-02-05T00:55:05.868Z,102064.97
2023-02-05T00:57:33.229Z,102063.19
2023-02-05T01:00:00.139Z,102062.16
2023-02-05T01:02:27.260Z,102072.16
2023-02-05T01:04:54.442Z,102080.03
2023-02-05T01:07:26.008Z,102058.66
2023-02-05T01:09:53.375Z,102055.56
2023-02-05T01:12:20.842Z,102058.53
2023-02-05T01:14:48.064Z,102042.22
2023-02-05T01:17:15.242Z,102038.09
2023-02-05T01:19:42.461Z,102060.53
2023-02-05T01:22:25.558Z,102049.50
2023-02-05T01:24:57.923Z,102054.47
2023-02-05T01:27:25.444Z,102066.69
2023-02-05T01:29:52.979Z,102052.09
2023-02-05T01:32:21.206Z,102062.88
2023-02-05T01:34:48.650Z,102056.34
2023-02-05T01:37:18.245Z,102048.72
2023-02-05T01:39:45.253Z,102046.59
2023-02-05T01:42:23.050Z,102039.28
2023-02-05T01:45:36.072Z,102042.44
2023-02-05T01:48:05.223Z,102041.22
2023-02-05T01:50:45.546Z,102046.06
2023-02-05T01:53:21.937Z,102046.72
2023-02-05T01:56:03.072Z,102043.59
2023-02-05T01:58:34.592Z,102041.75
2023-02-05T02:01:02.154Z,102028.44
2023-02-05T02:03:31.961Z,102028.44
2023-02-05T02:05:59.664Z,102020.69
2023-02-05T02:08:27.242Z,102018.12
2023-02-05T02:10:58.358Z,102005.44
2023-02-05T02:13:27.037Z,102024.59
2023-02-05T02:15:56.041Z,102021.72
2023-02-05T02:18:28.091Z,102024.09
2023-02-05T02:21:24.484Z,102018.91
2023-02-05T02:24:31.940Z,102025.78
2023-02-05T02:27:30.371Z,102022.53
2023-02-05T02:30:22.653Z,102034.94
2023-02-05T02:33:07.655Z,102033.84
2023-02-05T02:35:59.441Z,102046.91
2023-02-05T02:38:39.816Z,102051.16
2023-02-05T02:41:28.148Z,102060.41
2023-02-05T02:43:58.002Z,102052.12
2023-02-05T02:46:40.315Z,102056.94
2023-02-05T02:49:12.216Z,102067.41
2023-02-05T02:51:42.409Z,102069.88
2023-02-05T02:54:21.656Z,102060.59
2023-02-05T02:56:52.941Z,102057.97
2023-02-05T02:59:24.228Z,102078.13
2023-02-05T03:02:13.219Z,102080.50
2023-02-05T03:04:43.288Z,102084.31
2023-02-05T03:07:25.328Z,102076.88
2023-02-05T03:10:10.998Z,102087.41
2023-02-05T03:12:38.041Z,102096.91
2023-02-05T03:15:24.051Z,102102.09
2023-02-05T03:17:56.504Z,102094.94
2023-02-05T03:20:30.187Z,102094.50
2023-02-05T03:22:57.579Z,102104.31
2023-02-05T03:25:36.023Z,102100.47
2023-02-05T03:28:05.295Z,102096.59
2023-02-05T03:31:05.231Z,102095.78
2023-02-05T03:33:53.125Z,102087.28
2023-02-05T03:36:28.369Z,102081.69
2023-02-05T03:39:17.302Z,102089.47
2023-02-05T03:41:57.170Z,102082.00
2023-02-05T03:44:45.244Z,102081.72
2023-02-05T03:47:23.974Z,102085.88
2023-02-05T03:50:01.281Z,102088.66
2023-02-05T03:52:36.123Z,102094.91
2023-02-05T03:55:33.587Z,102100.38
2023-02-05T03:58:06.416Z,102095.09
2023-02-05T04:00:41.262Z,102107.44
2023-02-05T04:03:08.540Z,102115.09
2023-02-05T04:05:36.832Z,102107.84
2023-02-05T04:08:06.649Z,102102.97
2023-02-05T04:10:33.837Z,102099.69
2023-02-05T04:13:03.081Z,102113.09
2023-02-05T04:15:30.416Z,102106.28
2023-02-05T04:17:59.083Z,102104.16
2023-02-05T04:20:26.831Z,102111.91
2023-02-05T04:22:55.074Z,102105.88
2023-02-05T04:25:24.076Z,102104.81
2023-02-05T04:27:51.703Z,102107.69
2023-02-05T04:30:19.815Z,102102.03
2023-02-05T04:32:47.366Z,102103.19
2023-02-05T04:35:14.598Z,102095.41
2023-02-05T04:37:42.154Z,102100.63
2023-02-05T04:40:10.313Z,102102.88
2023-02-05T04:42:37.866Z,102126.00
2023-02-05T04:45:06.258Z,102134.16
2023-02-05T04:47:34.187Z,102140.91
2023-02-05T04:50:02.234Z,102135.34
2023-02-05T04:52:31.626Z,102146.72
2023-02-05T04:54:59.671Z,102148.59
2023-02-05T04:57:27.184Z,102151.19
2023-02-05T04:59:55.229Z,102164.06
2023-02-05T05:02:24.599Z,102155.44
2023-02-05T05:04:52.004Z,102158.53
2023-02-05T05:07:20.039Z,102166.44
2023-02-05T05:09:47.484Z,102156.72
2023-02-05T05:12:20.552Z,102165.50
2023-02-05T05:14:49.640Z,102148.25
2023-02-05T05:17:19.306Z,102157.94
2023-02-05T05:19:49.112Z,102161.66
2023-02-05T05:22:16.710Z,102174.06
2023-02-05T05:24:46.006Z,102174.44
2023-02-05T05:27:19.031Z,102177.94
2023-02-05T05:29:47.123Z,102176.59
2023-02-05T05:32:14.750Z,102181.25
2023-02-05T05:34:43.108Z,102177.50
2023-02-05T05:37:11.019Z,102184.94
2023-02-05T05:39:56.881Z,102189.19
2023-02-05T05:42:43.429Z,102184.09
2023-02-05T05:45:14.956Z,102183.56
2023-02-05T05:47:42.289Z,102190.34
2023-02-05T05:50:19.941Z,102190.69
2023-02-05T05:52:49.077Z,102203.69
2023-02-05T05:55:16.787Z,102198.19
2023-02-05T05:57:43.874Z,102200.63
2023-02-05T06:00:13.752Z,102205.19
2023-02-05T06:02:45.160Z,102204.16
2023-02-05T06:05:13.206Z,102212.19
2023-02-05T06:07:40.862Z,102204.69
2023-02-05T06:10:09.157Z,102205.81
2023-02-05T06:12:36.738Z,102202.19
2023-02-05T06:15:05.347Z,102193.56
2023-02-05T06:17:41.569Z,102195.81
2023-02-05T06:20:10.329Z,102199.28
2023-02-05T06:22:42.871Z,102203.91
2023-02-05T06:25:19.526Z,102205.78
2023-02-05T06:27:46.931Z,102215.56
2023-02-05T06:30:15.225Z,102225.41
2023-02-05T06:32:43.460Z,102222.34
2023-02-05T06:35:10.903Z,102225.94
2023-02-05T06:37:47.079Z,102224.72
2023-02-05T06:40:18.451Z,102227.78
2023-02-05T06:42:46.144Z,102230.19
2023-02-05T06:45:13.977Z,102230.69
2023-02-05T06:47:43.535Z,102228.72
2023-02-05T06:50:30.569Z,102229.09
2023-02-05T06:53:02.653Z,102231.94
2023-02-05T06:55:30.588Z,102232.50
2023-02-05T06:58:02.142Z,102237.44
2023-02-05T07:00:32.130Z,102245.41
2023-02-05T07:03:04.647Z,102237.84
2023-02-05T07:05:33.290Z,102232.63
2023-02-05T07:08:00.352Z,102236.28
2023-02-05T07:10:27.410Z,102241.03
2023-02-05T07:12:54.278Z,102240.84
2023-02-05T07:15:21.150Z,102236.09
2023-02-05T07:17:48.035Z,102248.41
2023-02-05T07:20:16.941Z,102251.91
2023-02-05T07:22:43.884Z,102251.16
2023-02-05T07:25:11.338Z,102259.59
2023-02-05T07:27:38.448Z,102267.06
2023-02-05T07:30:06.108Z,102281.34
2023-02-05T07:32:34.304Z,102280.38
2023-02-05T07:35:01.729Z,102271.59
2023-02-05T07:37:28.715Z,102278.53
2023-02-05T07:39:57.958Z,102267.25
2023-02-05T07:42:45.010Z,102266.75
2023-02-05T07:45:12.192Z,102277.22
2023-02-05T07:47:39.275Z,102276.56
2023-02-05T07:50:06.474Z,102278.91
2023-02-05T07:52:33.924Z,102284.34
2023-02-05T07:55:00.888Z,102279.47
2023-02-05T07:57:27.812Z,102286.50
2023-02-05T07:59:54.694Z,102289.62
2023-02-05T08:02:21.598Z,102294.06
2023-02-05T08:04:48.498Z,102297.97
2023-02-05T08:07:15.408Z,102296.31
2023-02-05T08:09:42.345Z,102304.25
2023-02-05T08:12:09.389Z,102295.34
2023-02-05T08:14:36.752Z,102299.91
2023-02-05T08:17:06.335Z,102294.94
2023-02-05T08:19:33.360Z,102293.44
2023-02-05T08:22:00.241Z,102296.84
2023-02-05T08:24:27.256Z,102290.16
2023-02-05T08:26:54.198Z,102283.12
2023-02-05T08:29:21.142Z,102284.78
2023-02-05T08:31:48.053Z,102290.59
2023-02-05T08:34:16.381Z,102282.72
2023-02-05T08:36:43.269Z,102287.06
2023-02-05T08:39:10.165Z,102290.66
2023-02-05T08:41:37.605Z,102292.03
2023-02-05T08:44:04.900Z,102296.19
2023-02-05T08:46:47.318Z,102298.31
2023-02-05T08:49:17.120Z,102310.97
2023-02-05T08:51:44.080Z,102314.16
2023-02-05T08:54:13.556Z,102324.97
2023-02-05T08:56:41.932Z,102328.59
2023-02-05T08:59:09.869Z,102339.31
2023-02-05T09:01:43.340Z,102330.56
2023-02-05T09:04:18.531Z,102334.87
2023-02-05T09:06:45.584Z,102326.91
2023-02-05T09:09:17.539Z,102325.91
2023-02-05T09:11:49.427Z,102336.31
2023-02-05T09:14:16.947Z,102325.53
2023-02-05T09:16:43.981Z,102319.19
2023-02-05T09:19:15.521Z,102313.94
2023-02-05T09:21:43.371Z,102319.66
2023-02-05T09:24:10.794Z,102316.44
2023-02-05T09:26:37.737Z,102305.44
2023-02-05T09:29:04.730Z,102325.72
2023-02-05T09:31:31.854Z,102315.25
2023-02-05T09:33:58.890Z,102320.66
2023-02-05T09:36:25.992Z,102319.56
2023-02-05T09:39:04.959Z,102321.94
2023-02-05T09:41:57.400Z,102321.44
2023-02-05T09:44:45.727Z,102306.44
2023-02-05T09:47:43.826Z,102298.41
2023-02-05T09:50:16.623Z,102295.66
2023-02-05T09:52:48.042Z,102300.72
2023-02-05T09:55:14.875Z,102292.62
2023-02-05T09:57:42.651Z,102298.19
2023-02-05T10:00:23.063Z,102305.13
2023-02-05T10:03:08.728Z,102305.59
2023-02-05T10:05:47.250Z,102299.34
2023-02-05T10:08:36.267Z,102271.34
2023-02-05T10:11:12.216Z,102267.94
2023-02-05T10:14:01.706Z,102266.44
2023-02-05T10:16:29.279Z,102272.41
2023-02-05T10:19:31.504Z,102281.34
2023-02-05T10:22:42.067Z,102263.19
2023-02-05T10:25:24.347Z,102266.88
2023-02-05T10:27:54.097Z,102257.97
2023-02-05T10:30:51.777Z,102254.66
2023-02-05T10:33:28.200Z,102247.66
2023-02-05T10:36:10.031Z,102246.56
2023-02-05T10:38:44.216Z,102244.78
2023-02-05T10:41:36.965Z,102240.66
2023-02-05T10:44:16.716Z,102238.34
2023-02-05T10:46:52.030Z,102235.56
2023-02-05T10:49:29.923Z,102225.06
2023-02-05T10:51:57.573Z,102229.31
2023-02-05T10:54:29.536Z,102232.47
2023-02-05T10:56:58.567Z,102236.81
2023-02-05T10:59:30.356Z,102231.41
2023-02-05T11:02:03.251Z,102230.44
2023-02-05T11:04:31.583Z,102213.28
2023-02-05T11:06:58.969Z,102210.19
2023-02-05T11:09:26.444Z,102218.00
2023-02-05T11:11:53.466Z,102209.87
2023-02-05T11:14:46.378Z,102210.69
2023-02-05T11:17:33.988Z,102205.91
2023-02-05T11:20:06.329Z,102203.78
2023-02-05T11:22:40.020Z,102202.31
2023-02-05T11:25:26.569Z,102195.41
2023-02-05T11:28:01.931Z,102200.16
2023-02-05T11:30:53.929Z,102190.31
2023-02-05T11:33:22.604Z,102192.09
2023-02-05T11:35:52.722Z,102187.72
2023-02-05T11:38:48.221Z,102181.50
2023-02-05T11:41:28.158Z,102187.72
2023-02-05T11:44:04.513Z,102187.31
2023-02-05T11:46:37.059Z,102179.41
2023-02-05T11:49:10.076Z,102171.16
2023-02-05T11:51:46.119Z,102167.56
2023-02-05T11:54:33.083Z,102175.19
2023-02-05T11:57:20.276Z,102182.56
2023-02-05T12:00:09.291Z,102178.50
2023-02-05T12:02:39.048Z,102185.00
2023-02-05T12:05:12.258Z,102180.75
2023-02-05T12:07:58.259Z,102187.84
2023-02-05T12:10:39.872Z,102187.59
2023-02-05T12:13:45.565Z,102184.69
2023-02-05T12:16:30.971Z,102172.16
2023-02-05T12:19:22.310Z,102169.28
2023-02-05T12:22:08.115Z,102186.97
2023-02-05T12:24:48.088Z,102176.97
2023-02-05T12:27:35.304Z,102173.00
2023-02-05T12:30:35.627Z,102153.03
2023-02-05T12:33:29.808Z,102160.72
2023-02-05T12:36:19.343Z,102162.91
2023-02-05T12:39:27.487Z,102160.56
2023-02-05T12:42:02.342Z,102159.91
2023-02-05T12:45:06.215Z,102166.78
2023-02-05T12:47:50.424Z,102157.12
2023-02-05T12:50:39.310Z,102148.00
2023-02-05T12:53:15.508Z,102151.84
2023-02-05T12:56:08.458Z,102153.47
2023-02-05T12:58:48.272Z,102147.38
2023-02-05T13:01:21.419Z,102145.09
2023-02-05T13:04:00.244Z,102142.78
2023-02-05T13:06:45.134Z,102143.13
2023-02-05T13:09:24.948Z,102137.19
2023-02-05T13:12:05.544Z,102150.66
2023-02-05T13:14:41.135Z,102148.19
2023-02-05T13:17:21.726Z,102143.28
2023-02-05T13:19:53.564Z,102139.84
2023-02-05T13:22:44.176Z,102136.03
2023-02-05T13:25:38.027Z,102140.75
2023-02-05T13:28:39.272Z,102126.62
2023-02-05T13:31:30.070Z,102137.00
2023-02-05T13:34:03.691Z,102132.56
2023-02-05T13:36:50.258Z,102132.97
2023-02-05T13:39:55.628Z,102143.00
2023-02-05T13:43:13.453Z,102142.56
2023-02-05T13:46:03.036Z,102139.78
2023-02-05T13:49:00.112Z,102133.59
2023-02-05T13:51:43.278Z,102147.53
2023-02-05T13:54:29.837Z,102135.16
2023-02-05T13:57:32.536Z,102148.13
2023-02-05T14:00:01.176Z,102145.50
2023-02-05T14:02:45.556Z,102152.37
2023-02-05T14:05:14.404Z,102148.19
2023-02-05T14:07:50.288Z,102143.13
2023-02-05T14:10:41.060Z,102145.91
2023-02-05T14:13:34.597Z,102139.81
2023-02-05T14:16:35.242Z,102143.44
2023-02-05T14:19:03.301Z,102145.91
2023-02-05T14:21:30.435Z,102137.88
2023-02-05T14:24:24.434Z,102138.81
2023-02-05T14:26:58.621Z,102142.00
2023-02-05T14:29:42.970Z,102144.78
2023-02-05T14:32:19.912Z,102139.00
2023-02-05T14:35:00.299Z,102140.91
2023-02-05T14:37:31.349Z,102142.47
2023-02-05T14:39:59.931Z,102143.44
2023-02-05T14:42:30.532Z,102143.28
2023-02-05T14:45:00.795Z,102138.09
2023-02-05T14:47:34.149Z,102148.50
2023-02-05T14:50:10.475Z,102148.72
2023-02-05T14:52:52.362Z,102148.87
2023-02-05T14:55:39.826Z,102139.53
2023-02-05T14:58:27.430Z,102148.53
2023-02-05T15:01:43.685Z,102152.47
2023-02-05T15:04:22.794Z,102143.16
2023-02-05T15:06:52.444Z,102154.09
2023-02-05T15:09:31.066Z,102148.34
2023-02-05T15:12:21.276Z,102147.19
2023-02-05T15:14:54.028Z,102152.19
2023-02-05T15:17:30.861Z,102144.59
2023-02-05T15:20:19.378Z,102146.72
2023-02-05T15:22:55.271Z,102140.50
2023-02-05T15:25:25.854Z,102137.66
2023-02-05T15:27:59.286Z,102141.81
2023-02-05T15:30:54.935Z,102151.66
2023-02-05T15:33:35.116Z,102152.31
2023-02-05T15:36:11.140Z,102153.38
2023-02-05T15:38:56.438Z,102145.53
2023-02-05T15:41:26.747Z,102156.22
2023-02-05T15:44:02.416Z,102162.81
2023-02-05T15:46:33.032Z,102157.66
2023-02-05T15:49:01.667Z,102164.78
2023-02-05T15:51:34.232Z,102162.13
2023-02-05T15:54:04.735Z,102156.41
2023-02-05T15:56:45.317Z,102157.12
2023-02-05T15:59:19.690Z,102164.91
2023-02-05T16:01:53.057Z,102166.56
2023-02-05T16:04:20.409Z,102164.44
2023-02-05T16:06:47.545Z,102171.59
2023-02-05T16:09:24.090Z,102176.34
2023-02-05T16:11:51.878Z,102179.72
2023-02-05T16:14:21.854Z,102177.09
2023-02-05T16:17:10.959Z,102181.94
2023-02-05T16:19:49.132Z,102179.59
2023-02-05T16:22:22.523Z,102184.31
2023-02-05T16:24:51.283Z,102189.81
2023-02-05T16:27:47.594Z,102188.12
2023-02-05T16:30:43.108Z,102191.06
2023-02-05T16:33:18.437Z,102204.56
2023-02-05T16:35:50.042Z,102192.06
2023-02-05T16:38:20.587Z,102197.69
2023-02-05T16:40:52.213Z,102202.22
2023-02-05T16:43:31.576Z,102215.53
2023-02-05T16:46:08.215Z,102223.81
2023-02-05T16:48:47.390Z,102215.97
2023-02-05T16:51:33.063Z,102220.03
2023-02-05T16:54:12.609Z,102216.25
2023-02-05T16:56:46.275Z,102220.81
2023-02-05T16:59:20.597Z,102220.97
2023-02-05T17:02:38.053Z,102217.00
2023-02-05T17:05:31.341Z,102212.06
2023-02-05T17:08:02.766Z,102215.22
2023-02-05T17:10:31.172Z,102216.22
2023-02-05T17:13:01.248Z,102212.06
2023-02-05T17:15:30.263Z,102221.41
2023-02-05T17:18:23.441Z,102224.94
2023-02-05T17:20:50.472Z,102220.69
2023-02-05T17:23:21.750Z,102216.75
2023-02-05T17:25:56.332Z,102232.06
2023-02-05T17:28:26.405Z,102229.84
2023-02-05T17:30:58.808Z,102229.03
2023-02-05T17:33:29.128Z,102229.19
2023-02-05T17:35:56.014Z,102235.38
2023-02-05T17:38:23.949Z,102224.38
2023-02-05T17:41:11.115Z,102229.38
2023-02-05T17:43:39.386Z,102227.72
2023-02-05T17:46:14.556Z,102222.66
2023-02-05T17:48:42.382Z,102226.31
2023-02-05T17:51:20.806Z,102224.38
2023-02-05T17:53:49.299Z,102227.06
2023-02-05T17:56:19.600Z,102241.25
2023-02-05T17:58:47.070Z,102239.66
2023-02-05T18:01:14.084Z,102239.13
2023-02-05T18:03:41.928Z,102232.50
2023-02-05T18:06:13.993Z,102228.44
2023-02-05T18:08:42.477Z,102237.78
2023-02-05T18:11:10.609Z,102237.09
2023-02-05T18:13:38.516Z,102241.06
2023-02-05T18:16:05.819Z,102242.34
2023-02-05T18:18:35.976Z,102242.34
2023-02-05T18:21:04.315Z,102251.41
2023-02-05T18:23:32.658Z,102249.38
2023-02-05T18:26:00.476Z,102258.41
2023-02-05T18:28:29.013Z,102260.00
2023-02-05T18:31:01.335Z,102262.28
2023-02-05T18:33:29.497Z,102282.72
2023-02-05T18:36:10.973Z,102275.88
2023-02-05T18:38:39.704Z,102269.66
2023-02-05T18:41:13.169Z,102272.78
2023-02-05T18:43:40.697Z,102274.56
2023-02-05T18:46:15.094Z,102275.25
2023-02-05T18:48:45.770Z,102268.41
2023-02-05T18:51:16.610Z,102272.59
2023-02-05T18:53:47.932Z,102278.34
2023-02-05T18:56:19.763Z,102274.50
2023-02-05T18:58:51.370Z,102269.56
2023-02-05T19:01:19.656Z,102274.03
2023-02-05T19:03:47.101Z,102277.56
2023-02-05T19:06:17.186Z,102281.34
2023-02-05T19:08:53.436Z,102282.69
2023-02-05T19:11:23.149Z,102279.88
2023-02-05T19:14:03.190Z,102290.41
2023-02-05T19:16:31.818Z,102294.97
2023-02-05T19:18:59.786Z,102304.50
2023-02-05T19:21:29.631Z,102308.25
2023-02-05T19:24:01.784Z,102311.91
2023-02-05T19:26:32.681Z,102305.91
2023-02-05T19:29:03.479Z,102317.16
2023-02-05T19:31:33.026Z,102308.72
2023-02-05T19:34:01.684Z,102309.81
2023-02-05T19:36:30.300Z,102306.28
2023-02-05T19:38:59.582Z,102306.69
2023-02-05T19:41:45.960Z,102307.03
2023-02-05T19:44:17.998Z,102299.00
2023-02-05T19:46:49.024Z,102297.94
2023-02-05T19:49:22.268Z,102307.63
2023-02-05T19:51:54.433Z,102302.34
2023-02-05T19:54:23.496Z,102312.41
2023-02-05T19:56:51.192Z,102311.13
2023-02-05T19:59:18.775Z,102316.44
2023-02-05T20:01:46.624Z,102313.59
2023-02-05T20:04:21.472Z,102317.78
2023-02-05T20:06:59.110Z,102330.19
2023-02-05T20:09:28.480Z,102324.00
2023-02-05T20:11:55.919Z,102331.00
2023-02-05T20:14:23.823Z,102327.09
2023-02-05T20:16:52.442Z,102333.19
2023-02-05T20:19:20.858Z,102327.41
2023-02-05T20:21:50.245Z,102331.06
2023-02-05T20:24:34.573Z,102337.75
2023-02-05T20:27:02.779Z,102334.19
2023-02-05T20:29:49.344Z,102334.00
2023-02-05T20:32:18.534Z,102331.69
2023-02-05T20:34:50.320Z,102334.47
2023-02-05T20:37:20.328Z,102332.41
2023-02-05T20:39:48.570Z,102333.31
2023-02-05T20:42:16.806Z,102335.06
2023-02-05T20:44:44.786Z,102333.09
2023-02-05T20:47:14.100Z,102332.09
2023-02-05T20:49:42.717Z,102329.97
2023-02-05T20:52:12.200Z,102333.62
2023-02-05T20:54:39.665Z,102332.53
2023-02-05T20:57:07.653Z,102342.88
2023-02-05T20:59:36.751Z,102331.66
2023-02-05T21:02:04.176Z,102334.03
2023-02-05T21:04:31.618Z,102333.50
2023-02-05T21:06:58.718Z,102336.00
2023-02-05T21:09:25.636Z,102333.28
2023-02-05T21:11:55.699Z,102341.72
2023-02-05T21:14:23.302Z,102338.78
2023-02-05T21:16:50.286Z,102345.09
2023-02-05T21:19:18.441Z,102346.44
2023-02-05T21:21:45.574Z,102355.53
2023-02-05T21:24:14.535Z,102357.44
2023-02-05T21:26:44.282Z,102355.50
2023-02-05T21:29:13.040Z,102362.69
2023-02-05T21:31:46.625Z,102357.88
2023-02-05T21:34:16.841Z,102369.53
2023-02-05T21:36:44.519Z,102372.69
2023-02-05T21:39:21.586Z,102375.31
2023-02-05T21:41:50.896Z,102371.53
2023-02-05T21:44:17.897Z,102376.25
2023-02-05T21:46:44.837Z,102373.78
2023-02-05T21:49:11.888Z,102379.50
2023-02-05T21:51:40.060Z,102388.44
2023-02-05T21:54:07.100Z,102384.00
2023-02-05T21:56:43.721Z,102388.69
2023-02-05T21:59:12.272Z,102400.25
2023-02-05T22:01:40.174Z,102399.47
2023-02-05T22:04:15.549Z,102401.44
2023-02-05T22:06:43.113Z,102408.00
2023-02-05T22:09:12.557Z,102405.41
2023-02-05T22:11:40.703Z,102414.72
2023-02-05T22:14:08.089Z,102417.97
2023-02-05T22:16:36.379Z,102429.78
2023-02-05T22:19:04.893Z,102433.81
2023-02-05T22:21:37.678Z,102429.44
2023-02-05T22:24:05.804Z,102437.16
2023-02-05T22:26:36.351Z,102437.19
2023-02-05T22:29:05.450Z,102435.59
2023-02-05T22:31:32.520Z,102432.53
2023-02-05T22:33:59.810Z,102430.50
2023-02-05T22:36:29.593Z,102441.84
2023-02-05T22:38:57.034Z,102439.03
2023-02-05T22:41:29.207Z,102433.84
2023-02-05T22:43:57.714Z,102439.59
2023-02-05T22:46:27.915Z,102438.28
2023-02-05T22:48:56.179Z,102455.44
2023-02-05T22:51:25.909Z,102459.38
2023-02-05T22:53:53.202Z,102464.34
2023-02-05T22:56:21.147Z,102462.12
2023-02-05T22:58:49.334Z,102467.78
2023-02-05T23:01:17.816Z,102466.44
2023-02-05T23:03:46.064Z,102477.44
2023-02-05T23:06:16.540Z,102471.44
2023-02-05T23:08:45.158Z,102472.69
2023-02-05T23:11:14.645Z,102487.06
2023-02-05T23:13:42.270Z,102492.62
2023-02-05T23:16:15.073Z,102498.00
2023-02-05T23:18:42.869Z,102497.84
2023-02-05T23:21:14.200Z,102510.84
2023-02-05T23:23:42.156Z,102504.66
2023-02-05T23:26:17.162Z,102514.19
2023-02-05T23:28:47.262Z,102504.09
2023-02-05T23:31:17.458Z,102510.03
2023-02-05T23:33:45.030Z,102509.38
2023-02-05T23:36:13.276Z,102498.63
2023-02-05T23:38:40.679Z,102500.16
2023-02-05T23:41:10.879Z,102498.31
2023-02-05T23:43:38.800Z,102502.53
2023-02-05T23:46:07.511Z,102494.53
2023-02-05T23:48:35.447Z,102499.09
2023-02-05T23:51:03.073Z,102492.38
2023-02-05T23:53:32.103Z,102495.56
2023-02-05T23:55:59.356Z,102498.75
2023-02-05T23:58:28.410Z,102514.87
